sensor_id;sensor_type;location;lat;lon;timestamp;P1;durP1;ratioP1;P2;durP2;ratioP2
56718;SDS011;42597;40.636;0.278;2024-02-26T00:02:15;10.43;;;3.65;;
56718;SDS011;42597;40.636;0.278;2024-02-26T00:04:41;9.45;;;3.80;;
56718;SDS011;42597;40.636;0.278;2024-02-26T00:07:07;6.93;;;2.95;;
56718;SDS011;42597;40.636;0.278;2024-02-26T00:09:32;8.95;;;3.08;;
56718;SDS011;42597;40.636;0.278;2024-02-26T00:12:01;4.00;;;1.92;;
56718;SDS011;42597;40.636;0.278;2024-02-26T00:14:29;6.40;;;1.85;;
56718;SDS011;42597;40.636;0.278;2024-02-26T00:16:55;4.97;;;2.25;;
56718;SDS011;42597;40.636;0.278;2024-02-26T00:19:21;5.13;;;2.60;;
56718;SDS011;42597;40.636;0.278;2024-02-26T00:21:46;4.05;;;2.58;;
56718;SDS011;42597;40.636;0.278;2024-02-26T00:24:12;3.95;;;1.70;;
56718;SDS011;42597;40.636;0.278;2024-02-26T00:26:38;0.93;;;0.70;;
56718;SDS011;42597;40.636;0.278;2024-02-26T00:29:04;6.25;;;2.58;;
56718;SDS011;42597;40.636;0.278;2024-02-26T00:31:30;4.80;;;1.88;;
56718;SDS011;42597;40.636;0.278;2024-02-26T00:33:55;3.13;;;1.88;;
56718;SDS011;42597;40.636;0.278;2024-02-26T00:36:21;5.40;;;2.28;;
56718;SDS011;42597;40.636;0.278;2024-02-26T00:38:46;1.92;;;0.70;;
56718;SDS011;42597;40.636;0.278;2024-02-26T00:41:16;0.80;;;0.43;;
56718;SDS011;42597;40.636;0.278;2024-02-26T00:43:42;4.53;;;1.92;;
56718;SDS011;42597;40.636;0.278;2024-02-26T00:46:08;3.33;;;1.67;;
56718;SDS011;42597;40.636;0.278;2024-02-26T00:48:33;4.32;;;1.45;;
56718;SDS011;42597;40.636;0.278;2024-02-26T00:50:59;4.30;;;1.42;;
56718;SDS011;42597;40.636;0.278;2024-02-26T00:53:25;3.75;;;0.60;;
56718;SDS011;42597;40.636;0.278;2024-02-26T00:55:50;3.30;;;1.55;;
56718;SDS011;42597;40.636;0.278;2024-02-26T00:58:16;1.77;;;0.68;;
56718;SDS011;42597;40.636;0.278;2024-02-26T01:00:42;6.80;;;2.28;;
56718;SDS011;42597;40.636;0.278;2024-02-26T01:03:09;3.60;;;1.65;;
56718;SDS011;42597;40.636;0.278;2024-02-26T01:05:35;2.92;;;1.08;;
56718;SDS011;42597;40.636;0.278;2024-02-26T01:08:02;2.88;;;1.70;;
56718;SDS011;42597;40.636;0.278;2024-02-26T01:10:28;4.60;;;2.10;;
56718;SDS011;42597;40.636;0.278;2024-02-26T01:12:53;3.97;;;2.13;;
56718;SDS011;42597;40.636;0.278;2024-02-26T01:15:19;4.97;;;1.50;;
56718;SDS011;42597;40.636;0.278;2024-02-26T01:17:48;3.63;;;1.80;;
56718;SDS011;42597;40.636;0.278;2024-02-26T01:20:15;3.78;;;1.27;;
56718;SDS011;42597;40.636;0.278;2024-02-26T01:22:40;3.35;;;1.67;;
56718;SDS011;42597;40.636;0.278;2024-02-26T01:25:06;4.18;;;1.95;;
56718;SDS011;42597;40.636;0.278;2024-02-26T01:27:32;3.38;;;1.65;;
56718;SDS011;42597;40.636;0.278;2024-02-26T01:29:58;0.30;;;0.22;;
56718;SDS011;42597;40.636;0.278;2024-02-26T01:32:24;1.75;;;0.68;;
56718;SDS011;42597;40.636;0.278;2024-02-26T01:34:49;2.53;;;1.35;;
56718;SDS011;42597;40.636;0.278;2024-02-26T01:37:15;1.42;;;0.95;;
56718;SDS011;42597;40.636;0.278;2024-02-26T01:39:40;2.50;;;1.35;;
56718;SDS011;42597;40.636;0.278;2024-02-26T01:42:07;2.67;;;1.23;;
56718;SDS011;42597;40.636;0.278;2024-02-26T01:44:32;0.43;;;0.40;;
56718;SDS011;42597;40.636;0.278;2024-02-26T01:46:58;2.20;;;1.17;;
56718;SDS011;42597;40.636;0.278;2024-02-26T01:49:26;3.20;;;1.40;;
56718;SDS011;42597;40.636;0.278;2024-02-26T01:51:53;3.03;;;1.45;;
56718;SDS011;42597;40.636;0.278;2024-02-26T01:54:19;2.13;;;1.00;;
56718;SDS011;42597;40.636;0.278;2024-02-26T01:56:46;5.75;;;3.53;;
56718;SDS011;42597;40.636;0.278;2024-02-26T01:59:12;2.10;;;0.82;;
56718;SDS011;42597;40.636;0.278;2024-02-26T02:01:38;1.23;;;0.90;;
56718;SDS011;42597;40.636;0.278;2024-02-26T02:04:10;2.30;;;1.13;;
56718;SDS011;42597;40.636;0.278;2024-02-26T02:06:35;3.95;;;1.50;;
56718;SDS011;42597;40.636;0.278;2024-02-26T02:09:01;1.38;;;0.98;;
56718;SDS011;42597;40.636;0.278;2024-02-26T02:11:31;1.73;;;1.05;;
56718;SDS011;42597;40.636;0.278;2024-02-26T02:13:58;2.42;;;0.80;;
56718;SDS011;42597;40.636;0.278;2024-02-26T02:16:24;2.92;;;1.40;;
56718;SDS011;42597;40.636;0.278;2024-02-26T02:18:50;2.92;;;0.65;;
56718;SDS011;42597;40.636;0.278;2024-02-26T02:21:15;1.63;;;0.95;;
56718;SDS011;42597;40.636;0.278;2024-02-26T02:23:41;0.95;;;0.60;;
56718;SDS011;42597;40.636;0.278;2024-02-26T02:26:11;3.28;;;1.10;;
56718;SDS011;42597;40.636;0.278;2024-02-26T02:28:37;0.47;;;0.47;;
56718;SDS011;42597;40.636;0.278;2024-02-26T02:31:04;2.60;;;0.88;;
56718;SDS011;42597;40.636;0.278;2024-02-26T02:33:30;1.25;;;0.93;;
56718;SDS011;42597;40.636;0.278;2024-02-26T02:35:56;0.45;;;0.45;;
56718;SDS011;42597;40.636;0.278;2024-02-26T02:38:23;1.23;;;0.70;;
56718;SDS011;42597;40.636;0.278;2024-02-26T02:40:51;0.70;;;0.70;;
56718;SDS011;42597;40.636;0.278;2024-02-26T02:43:19;2.72;;;1.45;;
56718;SDS011;42597;40.636;0.278;2024-02-26T02:45:45;2.10;;;0.98;;
56718;SDS011;42597;40.636;0.278;2024-02-26T02:48:11;0.45;;;0.30;;
56718;SDS011;42597;40.636;0.278;2024-02-26T02:50:36;0.75;;;0.52;;
56718;SDS011;42597;40.636;0.278;2024-02-26T02:53:02;0.60;;;0.60;;
56718;SDS011;42597;40.636;0.278;2024-02-26T02:55:28;1.50;;;0.90;;
56718;SDS011;42597;40.636;0.278;2024-02-26T02:57:54;0.68;;;0.57;;
56718;SDS011;42597;40.636;0.278;2024-02-26T03:00:19;0.82;;;0.82;;
56718;SDS011;42597;40.636;0.278;2024-02-26T03:02:45;2.28;;;0.80;;
56718;SDS011;42597;40.636;0.278;2024-02-26T03:05:11;1.55;;;0.93;;
56718;SDS011;42597;40.636;0.278;2024-02-26T03:07:37;1.92;;;0.88;;
56718;SDS011;42597;40.636;0.278;2024-02-26T03:10:03;0.90;;;0.60;;
56718;SDS011;42597;40.636;0.278;2024-02-26T03:12:29;0.38;;;0.30;;
56718;SDS011;42597;40.636;0.278;2024-02-26T03:14:55;2.17;;;1.13;;
56718;SDS011;42597;40.636;0.278;2024-02-26T03:17:21;1.55;;;0.65;;
56718;SDS011;42597;40.636;0.278;2024-02-26T03:19:46;0.82;;;0.43;;
56718;SDS011;42597;40.636;0.278;2024-02-26T03:22:13;1.38;;;0.70;;
56718;SDS011;42597;40.636;0.278;2024-02-26T03:24:38;1.13;;;0.63;;
56718;SDS011;42597;40.636;0.278;2024-02-26T03:27:04;0.75;;;0.47;;
56718;SDS011;42597;40.636;0.278;2024-02-26T03:29:37;0.85;;;0.38;;
56718;SDS011;42597;40.636;0.278;2024-02-26T03:32:03;2.60;;;0.98;;
56718;SDS011;42597;40.636;0.278;2024-02-26T03:34:29;1.85;;;0.50;;
56718;SDS011;42597;40.636;0.278;2024-02-26T03:36:55;4.57;;;2.50;;
56718;SDS011;42597;40.636;0.278;2024-02-26T03:39:22;4.78;;;2.70;;
56718;SDS011;42597;40.636;0.278;2024-02-26T03:41:48;3.60;;;2.05;;
56718;SDS011;42597;40.636;0.278;2024-02-26T03:44:13;4.80;;;2.38;;
56718;SDS011;42597;40.636;0.278;2024-02-26T03:46:40;4.18;;;2.17;;
56718;SDS011;42597;40.636;0.278;2024-02-26T03:49:07;0.60;;;0.55;;
56718;SDS011;42597;40.636;0.278;2024-02-26T03:51:33;1.33;;;0.88;;
56718;SDS011;42597;40.636;0.278;2024-02-26T03:53:59;2.00;;;1.00;;
56718;SDS011;42597;40.636;0.278;2024-02-26T03:56:25;0.75;;;0.57;;
56718;SDS011;42597;40.636;0.278;2024-02-26T03:58:51;1.23;;;0.90;;
56718;SDS011;42597;40.636;0.278;2024-02-26T04:01:17;2.75;;;0.98;;
56718;SDS011;42597;40.636;0.278;2024-02-26T04:03:43;0.50;;;0.50;;
56718;SDS011;42597;40.636;0.278;2024-02-26T04:06:09;1.73;;;0.70;;
56718;SDS011;42597;40.636;0.278;2024-02-26T04:08:44;1.23;;;0.60;;
56718;SDS011;42597;40.636;0.278;2024-02-26T04:11:10;0.80;;;0.40;;
56718;SDS011;42597;40.636;0.278;2024-02-26T04:13:36;1.08;;;0.60;;
56718;SDS011;42597;40.636;0.278;2024-02-26T04:16:03;0.73;;;0.50;;
56718;SDS011;42597;40.636;0.278;2024-02-26T04:18:30;0.93;;;0.57;;
56718;SDS011;42597;40.636;0.278;2024-02-26T04:20:56;0.90;;;0.60;;
56718;SDS011;42597;40.636;0.278;2024-02-26T04:23:22;0.52;;;0.40;;
56718;SDS011;42597;40.636;0.278;2024-02-26T04:25:48;2.35;;;0.73;;
56718;SDS011;42597;40.636;0.278;2024-02-26T04:28:13;2.10;;;0.75;;
56718;SDS011;42597;40.636;0.278;2024-02-26T04:30:40;0.45;;;0.43;;
56718;SDS011;42597;40.636;0.278;2024-02-26T04:33:06;0.68;;;0.45;;
56718;SDS011;42597;40.636;0.278;2024-02-26T04:35:31;2.30;;;1.45;;
56718;SDS011;42597;40.636;0.278;2024-02-26T04:37:57;0.98;;;0.70;;
56718;SDS011;42597;40.636;0.278;2024-02-26T04:40:23;1.88;;;1.00;;
56718;SDS011;42597;40.636;0.278;2024-02-26T04:42:49;2.28;;;0.70;;
56718;SDS011;42597;40.636;0.278;2024-02-26T04:45:14;3.85;;;0.57;;
56718;SDS011;42597;40.636;0.278;2024-02-26T04:47:40;0.60;;;0.55;;
56718;SDS011;42597;40.636;0.278;2024-02-26T04:50:06;1.60;;;0.73;;
56718;SDS011;42597;40.636;0.278;2024-02-26T04:52:32;0.93;;;0.50;;
56718;SDS011;42597;40.636;0.278;2024-02-26T04:54:57;0.47;;;0.45;;
56718;SDS011;42597;40.636;0.278;2024-02-26T04:57:25;0.52;;;0.50;;
56718;SDS011;42597;40.636;0.278;2024-02-26T04:59:51;1.02;;;0.77;;
56718;SDS011;42597;40.636;0.278;2024-02-26T05:02:17;2.25;;;0.90;;
56718;SDS011;42597;40.636;0.278;2024-02-26T05:04:42;1.42;;;0.65;;
56718;SDS011;42597;40.636;0.278;2024-02-26T05:07:08;0.77;;;0.60;;
56718;SDS011;42597;40.636;0.278;2024-02-26T05:09:34;1.42;;;0.68;;
56718;SDS011;42597;40.636;0.278;2024-02-26T05:11:59;0.88;;;0.40;;
56718;SDS011;42597;40.636;0.278;2024-02-26T05:14:25;1.42;;;0.70;;
56718;SDS011;42597;40.636;0.278;2024-02-26T05:16:50;0.70;;;0.55;;
56718;SDS011;42597;40.636;0.278;2024-02-26T05:19:16;0.60;;;0.50;;
56718;SDS011;42597;40.636;0.278;2024-02-26T05:21:41;0.80;;;0.35;;
56718;SDS011;42597;40.636;0.278;2024-02-26T05:24:09;2.42;;;0.73;;
56718;SDS011;42597;40.636;0.278;2024-02-26T05:26:35;1.15;;;0.68;;
56718;SDS011;42597;40.636;0.278;2024-02-26T05:29:00;5.20;;;0.95;;
56718;SDS011;42597;40.636;0.278;2024-02-26T05:31:26;1.52;;;1.08;;
56718;SDS011;42597;40.636;0.278;2024-02-26T05:33:52;1.45;;;0.80;;
56718;SDS011;42597;40.636;0.278;2024-02-26T05:36:19;0.63;;;0.50;;
56718;SDS011;42597;40.636;0.278;2024-02-26T05:38:48;1.35;;;0.75;;
56718;SDS011;42597;40.636;0.278;2024-02-26T05:41:15;1.20;;;0.65;;
56718;SDS011;42597;40.636;0.278;2024-02-26T05:43:41;6.07;;;1.00;;
56718;SDS011;42597;40.636;0.278;2024-02-26T05:46:07;3.28;;;1.30;;
56718;SDS011;42597;40.636;0.278;2024-02-26T05:48:32;1.20;;;0.75;;
56718;SDS011;42597;40.636;0.278;2024-02-26T05:50:58;2.03;;;0.57;;
56718;SDS011;42597;40.636;0.278;2024-02-26T05:53:23;3.10;;;1.10;;
56718;SDS011;42597;40.636;0.278;2024-02-26T05:55:49;0.63;;;0.43;;
56718;SDS011;42597;40.636;0.278;2024-02-26T05:58:14;2.72;;;0.60;;
56718;SDS011;42597;40.636;0.278;2024-02-26T06:00:40;0.75;;;0.50;;
56718;SDS011;42597;40.636;0.278;2024-02-26T06:03:05;2.38;;;0.98;;
56718;SDS011;42597;40.636;0.278;2024-02-26T06:05:31;0.77;;;0.65;;
56718;SDS011;42597;40.636;0.278;2024-02-26T06:07:56;0.47;;;0.43;;
56718;SDS011;42597;40.636;0.278;2024-02-26T06:10:22;0.75;;;0.50;;
56718;SDS011;42597;40.636;0.278;2024-02-26T06:12:47;2.10;;;0.82;;
56718;SDS011;42597;40.636;0.278;2024-02-26T06:15:13;0.82;;;0.50;;
56718;SDS011;42597;40.636;0.278;2024-02-26T06:17:39;0.38;;;0.38;;
56718;SDS011;42597;40.636;0.278;2024-02-26T06:20:04;2.60;;;1.15;;
56718;SDS011;42597;40.636;0.278;2024-02-26T06:22:31;2.22;;;0.70;;
56718;SDS011;42597;40.636;0.278;2024-02-26T06:24:57;2.45;;;0.73;;
56718;SDS011;42597;40.636;0.278;2024-02-26T06:27:23;2.65;;;0.95;;
56718;SDS011;42597;40.636;0.278;2024-02-26T06:29:49;1.20;;;0.52;;
56718;SDS011;42597;40.636;0.278;2024-02-26T06:32:14;0.50;;;0.50;;
56718;SDS011;42597;40.636;0.278;2024-02-26T06:34:40;1.08;;;0.70;;
56718;SDS011;42597;40.636;0.278;2024-02-26T06:37:07;3.42;;;1.23;;
56718;SDS011;42597;40.636;0.278;2024-02-26T06:39:33;1.25;;;0.95;;
56718;SDS011;42597;40.636;0.278;2024-02-26T06:41:59;2.13;;;0.50;;
56718;SDS011;42597;40.636;0.278;2024-02-26T06:44:27;3.13;;;0.50;;
56718;SDS011;42597;40.636;0.278;2024-02-26T06:46:59;1.70;;;0.65;;
56718;SDS011;42597;40.636;0.278;2024-02-26T06:49:25;1.65;;;0.70;;
56718;SDS011;42597;40.636;0.278;2024-02-26T06:51:51;0.52;;;0.38;;
56718;SDS011;42597;40.636;0.278;2024-02-26T06:54:17;2.40;;;0.73;;
56718;SDS011;42597;40.636;0.278;2024-02-26T06:56:42;1.90;;;0.30;;
56718;SDS011;42597;40.636;0.278;2024-02-26T06:59:08;1.77;;;0.52;;
56718;SDS011;42597;40.636;0.278;2024-02-26T07:01:34;0.70;;;0.40;;
56718;SDS011;42597;40.636;0.278;2024-02-26T07:03:59;0.90;;;0.40;;
56718;SDS011;42597;40.636;0.278;2024-02-26T07:06:26;2.63;;;0.52;;
56718;SDS011;42597;40.636;0.278;2024-02-26T07:08:52;2.70;;;1.35;;
56718;SDS011;42597;40.636;0.278;2024-02-26T07:11:18;0.80;;;0.63;;
56718;SDS011;42597;40.636;0.278;2024-02-26T07:13:45;1.73;;;0.82;;
56718;SDS011;42597;40.636;0.278;2024-02-26T07:16:11;0.80;;;0.38;;
56718;SDS011;42597;40.636;0.278;2024-02-26T07:18:39;0.25;;;0.20;;
56718;SDS011;42597;40.636;0.278;2024-02-26T07:21:04;0.45;;;0.45;;
56718;SDS011;42597;40.636;0.278;2024-02-26T07:23:31;2.40;;;0.57;;
56718;SDS011;42597;40.636;0.278;2024-02-26T07:25:56;1.60;;;0.70;;
56718;SDS011;42597;40.636;0.278;2024-02-26T07:28:22;0.73;;;0.40;;
56718;SDS011;42597;40.636;0.278;2024-02-26T07:30:47;0.32;;;0.32;;
56718;SDS011;42597;40.636;0.278;2024-02-26T07:33:13;5.00;;;0.95;;
56718;SDS011;42597;40.636;0.278;2024-02-26T07:35:39;2.00;;;0.95;;
56718;SDS011;42597;40.636;0.278;2024-02-26T07:38:04;0.95;;;0.82;;
56718;SDS011;42597;40.636;0.278;2024-02-26T07:40:30;13.57;;;1.00;;
56718;SDS011;42597;40.636;0.278;2024-02-26T07:42:56;23.25;;;3.25;;
56718;SDS011;42597;40.636;0.278;2024-02-26T07:45:22;0.85;;;0.52;;
56718;SDS011;42597;40.636;0.278;2024-02-26T07:47:48;4.90;;;1.38;;
56718;SDS011;42597;40.636;0.278;2024-02-26T07:50:13;4.05;;;2.03;;
56718;SDS011;42597;40.636;0.278;2024-02-26T07:52:39;1.80;;;0.63;;
56718;SDS011;42597;40.636;0.278;2024-02-26T07:55:05;2.55;;;0.57;;
56718;SDS011;42597;40.636;0.278;2024-02-26T07:57:34;4.63;;;0.95;;
56718;SDS011;42597;40.636;0.278;2024-02-26T08:00:00;3.83;;;0.88;;
56718;SDS011;42597;40.636;0.278;2024-02-26T08:02:27;1.80;;;0.73;;
56718;SDS011;42597;40.636;0.278;2024-02-26T08:04:53;3.28;;;0.82;;
56718;SDS011;42597;40.636;0.278;2024-02-26T08:07:19;20.80;;;2.42;;
56718;SDS011;42597;40.636;0.278;2024-02-26T08:09:46;2.17;;;0.73;;
56718;SDS011;42597;40.636;0.278;2024-02-26T08:12:12;4.60;;;1.73;;
56718;SDS011;42597;40.636;0.278;2024-02-26T08:14:37;17.60;;;2.08;;
56718;SDS011;42597;40.636;0.278;2024-02-26T08:17:03;5.97;;;1.92;;
56718;SDS011;42597;40.636;0.278;2024-02-26T08:19:29;12.73;;;3.30;;
56718;SDS011;42597;40.636;0.278;2024-02-26T08:21:55;28.67;;;5.82;;
56718;SDS011;42597;40.636;0.278;2024-02-26T08:24:20;3.70;;;2.22;;
56718;SDS011;42597;40.636;0.278;2024-02-26T08:26:46;15.60;;;3.72;;
56718;SDS011;42597;40.636;0.278;2024-02-26T08:29:11;8.10;;;4.15;;
56718;SDS011;42597;40.636;0.278;2024-02-26T08:31:37;13.52;;;3.88;;
56718;SDS011;42597;40.636;0.278;2024-02-26T08:34:06;14.98;;;2.88;;
56718;SDS011;42597;40.636;0.278;2024-02-26T08:36:32;4.97;;;1.48;;
56718;SDS011;42597;40.636;0.278;2024-02-26T08:38:58;2.63;;;1.10;;
56718;SDS011;42597;40.636;0.278;2024-02-26T08:41:24;4.03;;;1.73;;
56718;SDS011;42597;40.636;0.278;2024-02-26T08:43:50;3.40;;;1.33;;
56718;SDS011;42597;40.636;0.278;2024-02-26T08:46:15;2.72;;;1.30;;
56718;SDS011;42597;40.636;0.278;2024-02-26T08:48:41;5.10;;;2.00;;
56718;SDS011;42597;40.636;0.278;2024-02-26T08:51:07;2.55;;;0.98;;
56718;SDS011;42597;40.636;0.278;2024-02-26T08:53:33;1.15;;;0.80;;
56718;SDS011;42597;40.636;0.278;2024-02-26T08:56:00;2.42;;;1.30;;
56718;SDS011;42597;40.636;0.278;2024-02-26T08:58:27;3.85;;;1.45;;
56718;SDS011;42597;40.636;0.278;2024-02-26T09:00:53;3.92;;;1.00;;
56718;SDS011;42597;40.636;0.278;2024-02-26T09:03:19;1.48;;;0.82;;
56718;SDS011;42597;40.636;0.278;2024-02-26T09:05:45;5.18;;;1.73;;
56718;SDS011;42597;40.636;0.278;2024-02-26T09:08:10;4.90;;;1.48;;
56718;SDS011;42597;40.636;0.278;2024-02-26T09:10:36;3.67;;;1.52;;
56718;SDS011;42597;40.636;0.278;2024-02-26T09:13:01;2.13;;;1.10;;
56718;SDS011;42597;40.636;0.278;2024-02-26T09:15:27;4.55;;;1.10;;
56718;SDS011;42597;40.636;0.278;2024-02-26T09:17:53;2.60;;;1.40;;
56718;SDS011;42597;40.636;0.278;2024-02-26T09:20:18;1.92;;;0.98;;
56718;SDS011;42597;40.636;0.278;2024-02-26T09:22:45;7.25;;;2.55;;
56718;SDS011;42597;40.636;0.278;2024-02-26T09:25:12;3.63;;;1.77;;
56718;SDS011;42597;40.636;0.278;2024-02-26T09:27:38;6.95;;;1.73;;
56718;SDS011;42597;40.636;0.278;2024-02-26T09:30:04;3.78;;;1.25;;
56718;SDS011;42597;40.636;0.278;2024-02-26T09:32:29;6.35;;;2.03;;
56718;SDS011;42597;40.636;0.278;2024-02-26T09:34:55;8.85;;;3.15;;
56718;SDS011;42597;40.636;0.278;2024-02-26T09:37:21;5.88;;;3.03;;
56718;SDS011;42597;40.636;0.278;2024-02-26T09:39:47;11.60;;;4.00;;
56718;SDS011;42597;40.636;0.278;2024-02-26T09:42:12;6.65;;;2.17;;
56718;SDS011;42597;40.636;0.278;2024-02-26T09:44:39;3.97;;;1.58;;
56718;SDS011;42597;40.636;0.278;2024-02-26T09:47:10;3.40;;;1.08;;
56718;SDS011;42597;40.636;0.278;2024-02-26T09:49:38;6.57;;;2.22;;
56718;SDS011;42597;40.636;0.278;2024-02-26T09:52:04;3.58;;;1.33;;
56718;SDS011;42597;40.636;0.278;2024-02-26T09:54:31;9.27;;;1.85;;
56718;SDS011;42597;40.636;0.278;2024-02-26T09:56:59;4.32;;;1.65;;
56718;SDS011;42597;40.636;0.278;2024-02-26T09:59:26;10.85;;;2.80;;
56718;SDS011;42597;40.636;0.278;2024-02-26T10:01:53;4.93;;;1.40;;
56718;SDS011;42597;40.636;0.278;2024-02-26T10:04:19;7.85;;;3.20;;
56718;SDS011;42597;40.636;0.278;2024-02-26T10:06:45;8.30;;;1.70;;
56718;SDS011;42597;40.636;0.278;2024-02-26T10:09:12;35.20;;;6.30;;
56718;SDS011;42597;40.636;0.278;2024-02-26T10:11:41;17.50;;;2.55;;
56718;SDS011;42597;40.636;0.278;2024-02-26T10:14:08;5.85;;;2.10;;
56718;SDS011;42597;40.636;0.278;2024-02-26T10:16:34;5.57;;;2.08;;
56718;SDS011;42597;40.636;0.278;2024-02-26T10:19:00;9.38;;;2.08;;
56718;SDS011;42597;40.636;0.278;2024-02-26T10:21:26;8.40;;;3.30;;
56718;SDS011;42597;40.636;0.278;2024-02-26T10:23:51;9.40;;;3.35;;
56718;SDS011;42597;40.636;0.278;2024-02-26T10:26:17;5.93;;;1.42;;
56718;SDS011;42597;40.636;0.278;2024-02-26T10:28:43;4.25;;;2.17;;
56718;SDS011;42597;40.636;0.278;2024-02-26T10:31:10;13.38;;;2.97;;
56718;SDS011;42597;40.636;0.278;2024-02-26T10:33:37;7.00;;;1.73;;
56718;SDS011;42597;40.636;0.278;2024-02-26T10:36:04;7.85;;;1.90;;
56718;SDS011;42597;40.636;0.278;2024-02-26T10:38:30;1.65;;;0.73;;
56718;SDS011;42597;40.636;0.278;2024-02-26T10:40:57;14.25;;;1.60;;
56718;SDS011;42597;40.636;0.278;2024-02-26T10:43:23;11.32;;;1.70;;
56718;SDS011;42597;40.636;0.278;2024-02-26T10:45:50;3.05;;;1.38;;
56718;SDS011;42597;40.636;0.278;2024-02-26T10:48:15;4.03;;;1.17;;
56718;SDS011;42597;40.636;0.278;2024-02-26T10:50:42;3.83;;;1.15;;
56718;SDS011;42597;40.636;0.278;2024-02-26T10:53:18;5.82;;;1.35;;
56718;SDS011;42597;40.636;0.278;2024-02-26T10:55:49;4.40;;;1.60;;
56718;SDS011;42597;40.636;0.278;2024-02-26T10:58:19;8.15;;;1.15;;
56718;SDS011;42597;40.636;0.278;2024-02-26T11:00:47;4.28;;;0.90;;
56718;SDS011;42597;40.636;0.278;2024-02-26T11:03:14;5.38;;;1.63;;
56718;SDS011;42597;40.636;0.278;2024-02-26T11:05:46;4.88;;;2.13;;
56718;SDS011;42597;40.636;0.278;2024-02-26T11:08:13;2.65;;;0.70;;
56718;SDS011;42597;40.636;0.278;2024-02-26T11:10:40;7.05;;;2.45;;
56718;SDS011;42597;40.636;0.278;2024-02-26T11:13:07;6.10;;;1.40;;
56718;SDS011;42597;40.636;0.278;2024-02-26T11:15:37;1.83;;;0.85;;
56718;SDS011;42597;40.636;0.278;2024-02-26T11:18:04;7.05;;;1.13;;
56718;SDS011;42597;40.636;0.278;2024-02-26T11:20:32;2.08;;;0.98;;
56718;SDS011;42597;40.636;0.278;2024-02-26T11:22:59;3.00;;;1.30;;
56718;SDS011;42597;40.636;0.278;2024-02-26T11:25:25;4.43;;;1.33;;
56718;SDS011;42597;40.636;0.278;2024-02-26T11:27:52;6.55;;;2.50;;
56718;SDS011;42597;40.636;0.278;2024-02-26T11:30:23;7.22;;;1.80;;
56718;SDS011;42597;40.636;0.278;2024-02-26T11:32:51;10.52;;;2.25;;
56718;SDS011;42597;40.636;0.278;2024-02-26T11:35:18;3.20;;;1.20;;
56718;SDS011;42597;40.636;0.278;2024-02-26T11:38:19;3.33;;;1.45;;
56718;SDS011;42597;40.636;0.278;2024-02-26T11:40:43;2.78;;;1.25;;
56718;SDS011;42597;40.636;0.278;2024-02-26T11:43:09;6.90;;;1.77;;
56718;SDS011;42597;40.636;0.278;2024-02-26T11:48:23;2.30;;;0.90;;
56718;SDS011;42597;40.636;0.278;2024-02-26T11:50:51;6.05;;;1.52;;
56718;SDS011;42597;40.636;0.278;2024-02-26T11:55:48;1.42;;;0.65;;
56718;SDS011;42597;40.636;0.278;2024-02-26T11:58:33;4.43;;;2.42;;
56718;SDS011;42597;40.636;0.278;2024-02-26T12:00:59;7.95;;;3.75;;
56718;SDS011;42597;40.636;0.278;2024-02-26T12:03:25;22.15;;;4.68;;
56718;SDS011;42597;40.636;0.278;2024-02-26T12:05:51;10.10;;;2.67;;
56718;SDS011;42597;40.636;0.278;2024-02-26T12:08:16;9.45;;;2.80;;
56718;SDS011;42597;40.636;0.278;2024-02-26T12:10:45;2.38;;;1.17;;
56718;SDS011;42597;40.636;0.278;2024-02-26T12:13:12;2.72;;;1.33;;
56718;SDS011;42597;40.636;0.278;2024-02-26T12:15:44;30.92;;;6.28;;
56718;SDS011;42597;40.636;0.278;2024-02-26T12:18:15;34.25;;;3.72;;
56718;SDS011;42597;40.636;0.278;2024-02-26T12:20:42;4.63;;;1.40;;
56718;SDS011;42597;40.636;0.278;2024-02-26T12:25:42;4.13;;;1.15;;
56718;SDS011;42597;40.636;0.278;2024-02-26T12:28:09;1.75;;;1.00;;
56718;SDS011;42597;40.636;0.278;2024-02-26T12:30:35;1.35;;;1.00;;
56718;SDS011;42597;40.636;0.278;2024-02-26T12:33:00;1.95;;;1.02;;
56718;SDS011;42597;40.636;0.278;2024-02-26T12:35:27;12.60;;;2.17;;
56718;SDS011;42597;40.636;0.278;2024-02-26T12:37:53;1.77;;;0.70;;
56718;SDS011;42597;40.636;0.278;2024-02-26T12:40:19;1.48;;;0.80;;
56718;SDS011;42597;40.636;0.278;2024-02-26T12:42:45;17.35;;;3.15;;
56718;SDS011;42597;40.636;0.278;2024-02-26T12:45:12;2.15;;;0.90;;
56718;SDS011;42597;40.636;0.278;2024-02-26T12:47:43;2.60;;;0.80;;
56718;SDS011;42597;40.636;0.278;2024-02-26T12:50:11;2.97;;;0.85;;
56718;SDS011;42597;40.636;0.278;2024-02-26T12:52:44;3.92;;;1.00;;
56718;SDS011;42597;40.636;0.278;2024-02-26T12:55:17;4.13;;;0.77;;
56718;SDS011;42597;40.636;0.278;2024-02-26T12:57:45;2.95;;;1.23;;
56718;SDS011;42597;40.636;0.278;2024-02-26T13:00:12;0.85;;;0.68;;
56718;SDS011;42597;40.636;0.278;2024-02-26T13:02:40;1.30;;;0.75;;
56718;SDS011;42597;40.636;0.278;2024-02-26T13:05:11;1.15;;;0.68;;
56718;SDS011;42597;40.636;0.278;2024-02-26T13:07:44;1.88;;;0.70;;
56718;SDS011;42597;40.636;0.278;2024-02-26T13:10:12;1.77;;;0.80;;
56718;SDS011;42597;40.636;0.278;2024-02-26T13:12:48;1.30;;;0.73;;
56718;SDS011;42597;40.636;0.278;2024-02-26T13:15:21;4.28;;;1.33;;
56718;SDS011;42597;40.636;0.278;2024-02-26T13:20:13;2.83;;;0.75;;
56718;SDS011;42597;40.636;0.278;2024-02-26T13:22:49;3.08;;;1.00;;
56718;SDS011;42597;40.636;0.278;2024-02-26T13:25:19;1.33;;;0.70;;
56718;SDS011;42597;40.636;0.278;2024-02-26T13:27:45;1.80;;;0.77;;
56718;SDS011;42597;40.636;0.278;2024-02-26T13:30:11;2.25;;;0.93;;
56718;SDS011;42597;40.636;0.278;2024-02-26T13:32:38;0.80;;;0.50;;
56718;SDS011;42597;40.636;0.278;2024-02-26T13:35:08;2.35;;;1.40;;
56718;SDS011;42597;40.636;0.278;2024-02-26T13:37:38;2.97;;;0.90;;
56718;SDS011;42597;40.636;0.278;2024-02-26T13:40:08;1.45;;;0.60;;
56718;SDS011;42597;40.636;0.278;2024-02-26T13:42:35;1.80;;;0.77;;
56718;SDS011;42597;40.636;0.278;2024-02-26T13:45:01;1.73;;;0.63;;
56718;SDS011;42597;40.636;0.278;2024-02-26T13:47:27;1.80;;;0.85;;
56718;SDS011;42597;40.636;0.278;2024-02-26T13:49:53;3.88;;;1.25;;
56718;SDS011;42597;40.636;0.278;2024-02-26T13:52:19;2.60;;;1.17;;
56718;SDS011;42597;40.636;0.278;2024-02-26T13:54:47;1.65;;;0.50;;
56718;SDS011;42597;40.636;0.278;2024-02-26T13:57:13;1.00;;;0.50;;
56718;SDS011;42597;40.636;0.278;2024-02-26T13:59:38;1.33;;;0.75;;
56718;SDS011;42597;40.636;0.278;2024-02-26T14:02:07;0.55;;;0.50;;
56718;SDS011;42597;40.636;0.278;2024-02-26T14:04:33;1.33;;;0.75;;
56718;SDS011;42597;40.636;0.278;2024-02-26T14:06:59;0.70;;;0.55;;
56718;SDS011;42597;40.636;0.278;2024-02-26T14:09:25;1.13;;;0.47;;
56718;SDS011;42597;40.636;0.278;2024-02-26T14:11:50;0.70;;;0.50;;
56718;SDS011;42597;40.636;0.278;2024-02-26T14:14:16;0.95;;;0.68;;
56718;SDS011;42597;40.636;0.278;2024-02-26T14:16:41;4.03;;;1.58;;
56718;SDS011;42597;40.636;0.278;2024-02-26T14:19:07;2.63;;;0.70;;
56718;SDS011;42597;40.636;0.278;2024-02-26T14:21:32;1.65;;;0.57;;
56718;SDS011;42597;40.636;0.278;2024-02-26T14:23:58;2.20;;;0.52;;
56718;SDS011;42597;40.636;0.278;2024-02-26T14:26:23;2.13;;;0.95;;
56718;SDS011;42597;40.636;0.278;2024-02-26T14:28:49;3.13;;;1.30;;
56718;SDS011;42597;40.636;0.278;2024-02-26T14:31:18;12.70;;;2.30;;
56718;SDS011;42597;40.636;0.278;2024-02-26T14:36:09;4.07;;;1.65;;
56718;SDS011;42597;40.636;0.278;2024-02-26T14:38:36;2.83;;;1.20;;
56718;SDS011;42597;40.636;0.278;2024-02-26T14:41:02;5.55;;;2.72;;
56718;SDS011;42597;40.636;0.278;2024-02-26T14:43:28;7.32;;;3.90;;
56718;SDS011;42597;40.636;0.278;2024-02-26T14:45:55;18.77;;;5.47;;
56718;SDS011;42597;40.636;0.278;2024-02-26T14:48:21;6.80;;;2.25;;
56718;SDS011;42597;40.636;0.278;2024-02-26T14:50:46;10.40;;;3.97;;
56718;SDS011;42597;40.636;0.278;2024-02-26T14:53:12;14.63;;;6.85;;
56718;SDS011;42597;40.636;0.278;2024-02-26T14:55:37;12.38;;;5.95;;